Time;durP1;ratioP1;P1;durP2;ratioP2;P2;SDS_P1;SDS_P2;PMS_P1;PMS_P2;Temp;Humidity;BMP_temperature;BMP_pressure;BME280_temperature;BME280_humidity;BME280_pressure;Samples;Min_cycle;Max_cycle;Signal;HPM_P1;HPM_P2
2022/06/23 00:00:20;;;;;;;4.53;2.92;;;;;;;;;;5076421;28;20208;-59
2022/06/23 00:02:48;;;;;;;5.40;3.10;;;;;;;;;;5076018;28;20207;-58
2022/06/23 00:05:16;;;;;;;4.28;2.75;;;;;;;;;;5077377;28;20228;-58
2022/06/23 00:07:46;;;;;;;11.57;3.10;;;;;;;;;;5077545;28;20208;-58
2022/06/23 00:10:19;;;;;;;4.32;2.30;;;;;;;;;;5077614;28;20653;-59
2022/06/23 00:12:46;;;;;;;5.47;2.90;;;;;;;;;;5077562;28;20549;-57
2022/06/23 00:15:32;;;;;;;2.90;2.60;;;;;;;;;;5077120;28;20205;-57
2022/06/23 00:18:01;;;;;;;4.32;2.75;;;;;;;;;;5077524;28;20295;-57
2022/06/23 00:20:32;;;;;;;4.40;2.88;;;;;;;;;;5080853;28;20208;-58
2022/06/23 00:23:02;;;;;;;3.97;2.67;;;;;;;;;;5080812;28;20207;-58
2022/06/23 00:25:36;;;;;;;6.57;3.10;;;;;;;;;;5080831;28;20204;-58
2022/06/23 00:28:03;;;;;;;4.45;2.70;;;;;;;;;;5081035;28;20243;-59
2022/06/23 00:30:36;;;;;;;3.40;2.65;;;;;;;;;;5080990;28;20565;-58
2022/06/23 00:33:09;;;;;;;3.00;2.80;;;;;;;;;;5080545;28;20192;-58
2022/06/23 00:35:37;;;;;;;3.45;2.90;;;;;;;;;;5080523;28;20204;-58
2022/06/23 00:38:04;;;;;;;4.07;2.97;;;;;;;;;;5080321;28;20271;-58
2022/06/23 00:40:34;;;;;;;3.50;2.72;;;;;;;;;;5080786;28;20197;-58
2022/06/23 00:43:03;;;;;;;2.63;2.42;;;;;;;;;;5080095;28;20262;-58
2022/06/23 00:45:34;;;;;;;3.92;2.60;;;;;;;;;;5081235;28;20211;-58
2022/06/23 00:48:06;;;;;;;3.03;2.35;;;;;;;;;;5080343;28;20228;-58
2022/06/23 00:50:36;;;;;;;2.80;2.58;;;;;;;;;;5080139;28;20270;-58
2022/06/23 00:53:04;;;;;;;2.65;2.20;;;;;;;;;;5080324;28;20243;-58
2022/06/23 00:55:41;;;;;;;4.03;2.45;;;;;;;;;;5080531;28;20273;-58
2022/06/23 00:58:16;;;;;;;5.03;2.60;;;;;;;;;;5080906;28;20239;-58
2022/06/23 01:00:43;;;;;;;2.80;2.60;;;;;;;;;;5079572;28;20196;-59
2022/06/23 01:03:16;;;;;;;4.22;2.88;;;;;;;;;;5080035;28;20205;-58
2022/06/23 01:05:45;;;;;;;2.80;2.60;;;;;;;;;;5080060;28;20502;-58
2022/06/23 01:08:16;;;;;;;2.70;2.50;;;;;;;;;;5079778;28;20246;-58
2022/06/23 01:10:49;;;;;;;2.75;2.53;;;;;;;;;;5079720;28;20224;-58
2022/06/23 01:13:25;;;;;;;4.10;2.50;;;;;;;;;;5079943;28;20343;-58
2022/06/23 01:15:54;;;;;;;2.50;2.40;;;;;;;;;;5079942;28;20539;-58
2022/06/23 01:18:23;;;;;;;2.58;2.38;;;;;;;;;;5079701;28;20246;-59
2022/06/23 01:20:54;;;;;;;2.83;2.55;;;;;;;;;;5079851;28;20236;-58
2022/06/23 01:23:31;;;;;;;2.80;2.60;;;;;;;;;;5080322;28;20212;-58
2022/06/23 01:26:19;;;;;;;2.80;2.60;;;;;;;;;;5079856;28;20230;-59
2022/06/23 01:28:48;;;;;;;2.70;2.50;;;;;;;;;;5048114;28;20196;-59
2022/06/23 01:31:16;;;;;;;2.65;2.45;;;;;;;;;;5079640;28;20285;-59
2022/06/23 01:33:47;;;;;;;2.65;2.45;;;;;;;;;;5064029;28;20201;-58
2022/06/23 01:36:16;;;;;;;2.88;2.60;;;;;;;;;;5066147;28;20208;-58
2022/06/23 01:38:49;;;;;;;2.63;2.47;;;;;;;;;;5079634;28;20200;-58
2022/06/23 01:41:20;;;;;;;3.67;2.53;;;;;;;;;;5079625;28;20205;-58
2022/06/23 01:43:58;;;;;;;2.67;2.47;;;;;;;;;;5079179;28;20224;-58
2022/06/23 01:46:28;;;;;;;2.88;2.67;;;;;;;;;;5079438;28;20253;-58
2022/06/23 01:48:58;;;;;;;3.63;2.60;;;;;;;;;;5078813;28;20196;-58
2022/06/23 01:51:28;;;;;;;2.50;2.40;;;;;;;;;;5079051;28;20216;-59
2022/06/23 01:53:56;;;;;;;2.63;2.35;;;;;;;;;;5079313;28;20240;-58
2022/06/23 01:56:36;;;;;;;2.50;2.28;;;;;;;;;;5079059;28;20236;-58
2022/06/23 01:59:21;;;;;;;2.45;2.30;;;;;;;;;;5079534;28;20502;-58
2022/06/23 02:01:52;;;;;;;2.50;2.30;;;;;;;;;;5077807;28;20543;-58
2022/06/23 02:04:22;;;;;;;2.42;2.30;;;;;;;;;;5078991;28;20571;-58
2022/06/23 02:06:52;;;;;;;2.80;2.60;;;;;;;;;;5079038;28;20244;-58
2022/06/23 02:09:23;;;;;;;3.50;2.72;;;;;;;;;;5079025;28;20240;-58
2022/06/23 02:11:53;;;;;;;2.72;2.53;;;;;;;;;;5078746;28;20293;-58
2022/06/23 02:14:25;;;;;;;2.60;2.42;;;;;;;;;;5077700;28;20228;-58
2022/06/23 02:16:57;;;;;;;2.70;2.50;;;;;;;;;;5078626;28;20231;-58
2022/06/23 02:19:30;;;;;;;2.42;2.33;;;;;;;;;;5078521;28;20208;-58
2022/06/23 02:22:04;;;;;;;2.95;2.38;;;;;;;;;;5078097;28;20201;-59
2022/06/23 02:24:33;;;;;;;2.70;2.50;;;;;;;;;;5077658;28;20227;-58
2022/06/23 02:27:04;;;;;;;2.85;2.65;;;;;;;;;;5078335;28;20295;-58
2022/06/23 02:29:34;;;;;;;2.30;2.20;;;;;;;;;;5078070;28;20204;-58
2022/06/23 02:32:08;;;;;;;2.70;2.50;;;;;;;;;;5078059;28;20256;-59
2022/06/23 02:34:37;;;;;;;2.95;2.67;;;;;;;;;;5078467;28;20208;-58
2022/06/23 02:37:09;;;;;;;3.10;2.78;;;;;;;;;;5078942;28;20299;-58
2022/06/23 02:39:46;;;;;;;2.70;2.50;;;;;;;;;;5078738;28;20271;-58
2022/06/23 02:42:21;;;;;;;2.67;2.47;;;;;;;;;;5077973;28;20223;-58
2022/06/23 02:44:55;;;;;;;2.92;2.72;;;;;;;;;;5078200;28;20196;-64
2022/06/23 02:47:29;;;;;;;2.40;2.30;;;;;;;;;;5058508;28;20266;-58
2022/06/23 02:50:05;;;;;;;3.00;2.67;;;;;;;;;;5062435;28;20541;-58
2022/06/23 02:52:45;;;;;;;2.80;2.60;;;;;;;;;;5077106;28;20631;-58
2022/06/23 02:55:30;;;;;;;2.53;2.40;;;;;;;;;;5078132;28;20295;-58
2022/06/23 02:58:01;;;;;;;2.90;2.70;;;;;;;;;;5078059;28;20626;-58
2022/06/23 03:00:33;;;;;;;2.50;2.30;;;;;;;;;;5077734;28;20258;-58
2022/06/23 03:03:06;;;;;;;2.65;2.45;;;;;;;;;;5077250;28;20231;-58
2022/06/23 03:05:38;;;;;;;2.97;2.78;;;;;;;;;;5077875;28;20578;-58
2022/06/23 03:08:09;;;;;;;2.72;2.53;;;;;;;;;;5077416;28;20270;-58
2022/06/23 03:10:38;;;;;;;3.42;2.58;;;;;;;;;;5077318;28;20243;-58
2022/06/23 03:13:09;;;;;;;2.97;2.78;;;;;;;;;;5077510;28;20244;-58
2022/06/23 03:15:39;;;;;;;2.95;2.67;;;;;;;;;;5077841;28;20270;-58
2022/06/23 03:18:11;;;;;;;3.38;3.10;;;;;;;;;;5077036;28;20266;-58
2022/06/23 03:20:40;;;;;;;2.75;2.58;;;;;;;;;;5077455;28;20228;-58
2022/06/23 03:23:11;;;;;;;2.70;2.50;;;;;;;;;;5077392;28;20196;-58
2022/06/23 03:25:41;;;;;;;3.22;3.00;;;;;;;;;;5077342;28;20291;-58
2022/06/23 03:28:12;;;;;;;3.10;2.90;;;;;;;;;;5077912;28;20254;-58
2022/06/23 03:30:41;;;;;;;3.13;2.85;;;;;;;;;;5077766;28;20312;-58
2022/06/23 03:33:16;;;;;;;3.13;2.90;;;;;;;;;;5077217;28;20224;-59
2022/06/23 03:35:47;;;;;;;2.90;2.70;;;;;;;;;;5077500;28;20211;-58
2022/06/23 03:38:18;;;;;;;2.75;2.55;;;;;;;;;;5077310;28;20224;-58
2022/06/23 03:43:39;;;;;;;3.33;2.80;;;;;;;;;;5076865;28;20341;-58
2022/06/23 03:46:08;;;;;;;2.90;2.70;;;;;;;;;;5077684;28;20208;-58
2022/06/23 03:48:40;;;;;;;2.83;2.63;;;;;;;;;;5077971;28;20231;-58
2022/06/23 03:51:11;;;;;;;3.00;2.80;;;;;;;;;;5077164;28;20270;-58
2022/06/23 03:53:42;;;;;;;3.00;2.80;;;;;;;;;;5080168;28;20697;-59
2022/06/23 03:56:11;;;;;;;3.05;2.63;;;;;;;;;;5080567;28;20265;-58
2022/06/23 03:58:41;;;;;;;2.92;2.60;;;;;;;;;;5081473;28;20204;-58
2022/06/23 04:01:24;;;;;;;2.88;2.67;;;;;;;;;;5081014;28;20208;-58
2022/06/23 04:03:57;;;;;;;2.65;2.45;;;;;;;;;;5080978;28;20206;-58
2022/06/23 04:06:35;;;;;;;3.10;2.90;;;;;;;;;;5080464;28;20279;-59
2022/06/23 04:09:07;;;;;;;3.75;2.50;;;;;;;;;;5080042;28;20299;-58
2022/06/23 04:11:46;;;;;;;2.90;2.72;;;;;;;;;;5080065;28;20528;-58
2022/06/23 04:14:16;;;;;;;2.75;2.65;;;;;;;;;;5080210;28;20326;-58
2022/06/23 04:16:44;;;;;;;2.78;2.60;;;;;;;;;;5081127;28;20548;-58
2022/06/23 04:19:17;;;;;;;2.95;2.75;;;;;;;;;;5079688;28;20258;-58
2022/06/23 04:21:47;;;;;;;4.68;3.00;;;;;;;;;;5079634;28;20601;-58
2022/06/23 04:24:17;;;;;;;2.90;2.70;;;;;;;;;;5079520;28;20261;-58
2022/06/23 04:26:46;;;;;;;3.10;2.90;;;;;;;;;;5080262;28;20278;-58
2022/06/23 04:29:18;;;;;;;3.50;3.20;;;;;;;;;;5080372;28;20535;-58
2022/06/23 04:31:50;;;;;;;3.00;2.80;;;;;;;;;;5080562;28;20270;-58
2022/06/23 04:34:21;;;;;;;2.92;2.72;;;;;;;;;;5080336;28;20234;-58
2022/06/23 04:36:49;;;;;;;3.00;2.80;;;;;;;;;;5079181;28;20200;-58
2022/06/23 04:39:20;;;;;;;3.03;2.83;;;;;;;;;;5079041;28;20208;-58
2022/06/23 04:41:52;;;;;;;3.40;3.08;;;;;;;;;;5079457;28;20192;-58
2022/06/23 04:44:22;;;;;;;3.08;2.88;;;;;;;;;;5079356;28;20718;-58
2022/06/23 04:46:52;;;;;;;3.38;3.08;;;;;;;;;;5079349;28;20611;-58
2022/06/23 04:49:25;;;;;;;3.00;2.80;;;;;;;;;;5078652;28;20425;-58
2022/06/23 04:51:54;;;;;;;3.03;2.83;;;;;;;;;;5078833;28;20246;-58
2022/06/23 04:54:25;;;;;;;3.28;3.08;;;;;;;;;;5078913;28;20533;-58
2022/06/23 04:56:54;;;;;;;3.60;3.30;;;;;;;;;;5078592;28;20210;-58
2022/06/23 04:59:28;;;;;;;2.97;2.83;;;;;;;;;;5078338;28;20236;-58
2022/06/23 05:01:56;;;;;;;3.30;3.10;;;;;;;;;;5077661;28;20193;-58
2022/06/23 05:04:27;;;;;;;3.42;3.17;;;;;;;;;;5076969;28;20200;-58
2022/06/23 05:06:55;;;;;;;3.50;3.28;;;;;;;;;;5077737;28;20200;-58
2022/06/23 05:09:26;;;;;;;3.60;3.28;;;;;;;;;;5077473;28;20243;-58
2022/06/23 05:11:55;;;;;;;3.42;3.20;;;;;;;;;;5076509;28;20228;-58
2022/06/23 05:14:26;;;;;;;3.50;3.20;;;;;;;;;;5076807;28;20272;-58
2022/06/23 05:16:55;;;;;;;3.72;3.35;;;;;;;;;;5076644;28;20597;-58
2022/06/23 05:19:27;;;;;;;3.70;3.40;;;;;;;;;;5076641;28;20204;-58
2022/06/23 05:21:56;;;;;;;3.85;3.53;;;;;;;;;;5076644;28;20282;-58
2022/06/23 05:24:26;;;;;;;3.60;3.30;;;;;;;;;;5075358;28;20208;-58
2022/06/23 05:26:56;;;;;;;3.80;3.50;;;;;;;;;;5076501;28;20329;-58
2022/06/23 05:29:25;;;;;;;3.70;3.40;;;;;;;;;;5077049;28;20246;-58
2022/06/23 05:31:55;;;;;;;3.70;3.45;;;;;;;;;;5076544;28;20232;-58
2022/06/23 05:34:23;;;;;;;3.22;3.03;;;;;;;;;;5077552;28;20732;-58
2022/06/23 05:36:57;;;;;;;3.17;2.97;;;;;;;;;;5077937;28;20228;-59
2022/06/23 05:39:29;;;;;;;3.22;2.90;;;;;;;;;;5077383;28;20210;-58
2022/06/23 05:41:58;;;;;;;3.33;3.03;;;;;;;;;;5077051;28;20250;-58
2022/06/23 05:44:27;;;;;;;2.80;2.60;;;;;;;;;;5075597;28;20207;-58
2022/06/23 05:46:56;;;;;;;2.58;2.47;;;;;;;;;;5076283;28;20472;-58
2022/06/23 05:49:26;;;;;;;2.97;2.78;;;;;;;;;;5077267;28;20567;-58
2022/06/23 05:51:57;;;;;;;3.05;2.85;;;;;;;;;;5077131;28;20594;-58
2022/06/23 05:54:27;;;;;;;2.92;2.72;;;;;;;;;;5076445;28;20486;-58
2022/06/23 05:56:58;;;;;;;2.90;2.70;;;;;;;;;;5076940;28;20208;-58
2022/06/23 05:59:29;;;;;;;2.50;2.40;;;;;;;;;;5076167;28;20223;-58
2022/06/23 06:02:01;;;;;;;3.10;2.90;;;;;;;;;;5076515;28;20271;-58
2022/06/23 06:04:30;;;;;;;2.90;2.70;;;;;;;;;;5076030;28;20204;-58
2022/06/23 06:07:01;;;;;;;2.60;2.50;;;;;;;;;;5076651;28;20565;-58
2022/06/23 06:09:37;;;;;;;2.63;2.42;;;;;;;;;;5076560;28;20591;-59
2022/06/23 06:12:06;;;;;;;2.80;2.60;;;;;;;;;;5074604;28;20269;-58
2022/06/23 06:14:35;;;;;;;2.97;2.78;;;;;;;;;;5076067;28;20224;-58
2022/06/23 06:17:03;;;;;;;2.75;2.65;;;;;;;;;;5074933;28;20265;-58
2022/06/23 06:19:33;;;;;;;2.90;2.50;;;;;;;;;;5074744;28;20235;-58
2022/06/23 06:22:18;;;;;;;2.90;2.67;;;;;;;;;;5074257;28;20295;-58
2022/06/23 06:24:47;;;;;;;2.95;2.67;;;;;;;;;;5076698;28;20274;-58
2022/06/23 06:27:15;;;;;;;5.68;2.45;;;;;;;;;;5076616;28;20204;-58
2022/06/23 06:29:44;;;;;;;3.05;2.80;;;;;;;;;;5075674;28;20254;-58
2022/06/23 06:32:18;;;;;;;2.92;2.72;;;;;;;;;;5075931;28;20266;-58
2022/06/23 06:34:47;;;;;;;3.45;3.00;;;;;;;;;;5075838;28;20231;-58
2022/06/23 06:37:17;;;;;;;2.95;2.60;;;;;;;;;;5075790;28;20207;-58
2022/06/23 06:39:46;;;;;;;2.90;2.70;;;;;;;;;;5076152;28;20203;-58
2022/06/23 06:42:14;;;;;;;3.00;2.80;;;;;;;;;;5075351;28;20243;-58
2022/06/23 06:44:46;;;;;;;2.90;2.70;;;;;;;;;;5071098;28;20239;-58
2022/06/23 06:47:17;;;;;;;3.67;2.63;;;;;;;;;;5075091;28;20228;-58
2022/06/23 06:49:45;;;;;;;3.10;2.78;;;;;;;;;;5074269;28;20244;-58
2022/06/23 06:52:13;;;;;;;2.90;2.70;;;;;;;;;;5074900;28;20623;-58
2022/06/23 06:54:45;;;;;;;3.28;2.70;;;;;;;;;;5074035;28;20258;-58
2022/06/23 06:57:14;;;;;;;3.72;3.00;;;;;;;;;;5073204;28;20196;-59
2022/06/23 06:59:47;;;;;;;3.20;2.90;;;;;;;;;;5075263;28;20219;-58
2022/06/23 07:02:19;;;;;;;3.10;2.90;;;;;;;;;;5073627;28;20287;-58
2022/06/23 07:04:49;;;;;;;3.17;2.88;;;;;;;;;;5074494;28;20227;-58
2022/06/23 07:07:20;;;;;;;4.50;2.90;;;;;;;;;;5075925;28;20289;-58
2022/06/23 07:09:53;;;;;;;3.08;2.78;;;;;;;;;;5081579;28;20591;-59
2022/06/23 07:12:23;;;;;;;2.60;2.40;;;;;;;;;;5083832;28;21469;-58
2022/06/23 07:14:55;;;;;;;2.83;2.60;;;;;;;;;;5087729;28;20287;-58
2022/06/23 07:17:25;;;;;;;3.45;3.15;;;;;;;;;;5076674;28;20628;-58
2022/06/23 07:19:54;;;;;;;3.63;3.33;;;;;;;;;;5077268;28;20782;-58
2022/06/23 07:22:24;;;;;;;2.97;2.72;;;;;;;;;;5074175;28;20242;-58
2022/06/23 07:24:55;;;;;;;2.88;2.67;;;;;;;;;;5074556;28;20232;-59
2022/06/23 07:27:25;;;;;;;3.08;2.85;;;;;;;;;;5074785;28;20243;-58
2022/06/23 07:29:58;;;;;;;3.67;3.10;;;;;;;;;;5074210;28;20201;-58
2022/06/23 07:32:33;;;;;;;3.38;3.10;;;;;;;;;;5074431;28;20651;-58
2022/06/23 07:35:03;;;;;;;3.50;3.22;;;;;;;;;;5075325;28;20208;-58
2022/06/23 07:37:33;;;;;;;3.45;3.25;;;;;;;;;;5073897;28;20220;-58
2022/06/23 07:40:03;;;;;;;3.90;3.60;;;;;;;;;;5073942;28;20208;-58
2022/06/23 07:42:40;;;;;;;3.83;3.20;;;;;;;;;;5074365;28;20266;-58
2022/06/23 07:45:11;;;;;;;4.57;3.33;;;;;;;;;;5074338;28;20204;-58
2022/06/23 07:47:38;;;;;;;3.30;2.80;;;;;;;;;;5073786;28;20542;-58
2022/06/23 07:50:06;;;;;;;3.47;3.17;;;;;;;;;;5074249;28;20288;-58
2022/06/23 07:52:34;;;;;;;3.13;2.92;;;;;;;;;;5073893;28;20206;-58
2022/06/23 07:55:04;;;;;;;3.00;2.80;;;;;;;;;;5074685;28;20261;-57
2022/06/23 07:57:33;;;;;;;3.38;3.00;;;;;;;;;;5074552;28;20204;-58
2022/06/23 08:00:02;;;;;;;3.13;2.85;;;;;;;;;;5073673;28;20484;-58
2022/06/23 08:02:34;;;;;;;3.15;2.95;;;;;;;;;;5074565;28;20192;-58
2022/06/23 08:05:05;;;;;;;3.25;3.03;;;;;;;;;;5072109;28;20208;-58
2022/06/23 08:07:33;;;;;;;3.13;2.92;;;;;;;;;;5063949;28;20211;-58
2022/06/23 08:10:02;;;;;;;3.80;3.50;;;;;;;;;;5074992;28;20208;-58
2022/06/23 08:18:08;;;;;;;5.03;3.60;;;;;;;;;;5074375;28;20608;-58
2022/06/23 08:20:38;;;;;;;4.22;3.90;;;;;;;;;;5069044;28;20669;-58
2022/06/23 08:23:06;;;;;;;5.00;3.58;;;;;;;;;;5072525;28;20216;-58
2022/06/23 08:25:34;;;;;;;4.20;3.80;;;;;;;;;;5073548;28;20258;-58
2022/06/23 08:28:05;;;;;;;4.10;3.80;;;;;;;;;;5074571;28;20310;-58
2022/06/23 08:30:36;;;;;;;4.53;3.45;;;;;;;;;;5073827;28;20201;-58
2022/06/23 08:33:04;;;;;;;4.15;3.70;;;;;;;;;;5074073;28;20213;-58
2022/06/23 08:35:36;;;;;;;3.72;3.42;;;;;;;;;;5073837;28;20641;-58
2022/06/23 08:38:06;;;;;;;3.85;3.55;;;;;;;;;;5074347;28;20653;-58
2022/06/23 08:40:42;;;;;;;3.90;3.60;;;;;;;;;;5075212;28;20203;-57
2022/06/23 08:43:16;;;;;;;3.88;3.50;;;;;;;;;;5077566;28;20197;-58
2022/06/23 08:45:46;;;;;;;4.90;3.75;;;;;;;;;;5077317;28;20196;-58
2022/06/23 08:48:21;;;;;;;3.85;3.60;;;;;;;;;;5077208;28;20254;-58
2022/06/23 08:50:53;;;;;;;3.67;3.42;;;;;;;;;;5077918;28;20199;-58
2022/06/23 08:53:25;;;;;;;3.40;3.20;;;;;;;;;;5076232;28;20260;-58
2022/06/23 08:55:56;;;;;;;3.85;3.58;;;;;;;;;;5077461;28;20204;-58
2022/06/23 08:58:28;;;;;;;3.75;3.45;;;;;;;;;;5076365;28;20283;-58
2022/06/23 09:00:59;;;;;;;3.78;3.47;;;;;;;;;;5077496;28;21641;-58
2022/06/23 09:03:32;;;;;;;4.00;3.70;;;;;;;;;;5077096;28;20197;-58
2022/06/23 09:06:03;;;;;;;3.63;3.42;;;;;;;;;;5074932;28;20203;-58
2022/06/23 09:08:40;;;;;;;4.40;4.07;;;;;;;;;;5077264;28;20200;-58
2022/06/23 09:11:13;;;;;;;3.92;3.53;;;;;;;;;;5076242;28;20192;-58
2022/06/23 09:13:55;;;;;;;4.05;3.78;;;;;;;;;;5076579;28;20695;-58
2022/06/23 09:16:43;;;;;;;4.20;3.90;;;;;;;;;;5069222;28;20228;-58
2022/06/23 09:19:24;;;;;;;4.15;3.80;;;;;;;;;;5069250;28;20200;-58
2022/06/23 09:21:58;;;;;;;4.00;3.80;;;;;;;;;;5069040;28;20277;-58
2022/06/23 09:24:44;;;;;;;4.20;3.90;;;;;;;;;;5076106;28;20737;-58
2022/06/23 09:27:15;;;;;;;4.20;3.90;;;;;;;;;;5076142;28;20204;-58
2022/06/23 09:29:55;;;;;;;4.00;3.80;;;;;;;;;;5075810;28;20197;-58
2022/06/23 09:32:25;;;;;;;3.88;3.65;;;;;;;;;;5076041;28;20192;-58
2022/06/23 09:35:11;;;;;;;4.28;3.90;;;;;;;;;;5075043;28;20805;-58
2022/06/23 09:38:02;;;;;;;4.75;4.35;;;;;;;;;;5075009;28;20245;-58
2022/06/23 09:40:39;;;;;;;3.75;3.47;;;;;;;;;;5049011;28;20204;-58
2022/06/23 09:43:22;;;;;;;4.43;4.13;;;;;;;;;;5073055;28;20280;-58
2022/06/23 09:46:06;;;;;;;4.10;3.80;;;;;;;;;;5064755;28;20196;-58
2022/06/23 09:48:52;;;;;;;4.35;3.97;;;;;;;;;;5068547;28;20200;-57
2022/06/23 09:51:42;;;;;;;4.10;3.80;;;;;;;;;;5075384;28;20653;-58
2022/06/23 09:54:22;;;;;;;4.25;3.95;;;;;;;;;;5069799;28;20260;-58
2022/06/23 09:57:01;;;;;;;3.85;3.65;;;;;;;;;;5072261;28;20195;-58
2022/06/23 09:59:43;;;;;;;4.30;4.00;;;;;;;;;;5068350;28;20192;-58
2022/06/23 10:02:19;;;;;;;4.45;4.15;;;;;;;;;;5063105;28;20307;-58
2022/06/23 10:04:54;;;;;;;4.53;4.13;;;;;;;;;;5066562;28;20258;-58
2022/06/23 10:07:29;;;;;;;4.30;4.00;;;;;;;;;;5072226;28;20745;-58
2022/06/23 10:10:03;;;;;;;4.40;4.20;;;;;;;;;;5075572;28;20203;-58
2022/06/23 10:12:44;;;;;;;4.15;3.85;;;;;;;;;;5075093;28;20282;-58
2022/06/23 10:15:20;;;;;;;4.40;4.10;;;;;;;;;;5074326;28;20278;-58
2022/06/23 10:18:00;;;;;;;4.63;4.22;;;;;;;;;;5077285;28;20239;-58
2022/06/23 10:20:45;;;;;;;4.40;4.10;;;;;;;;;;5076864;28;20228;-58
2022/06/23 10:23:22;;;;;;;4.53;4.22;;;;;;;;;;5069582;28;20538;-58
2022/06/23 10:26:00;;;;;;;4.80;4.40;;;;;;;;;;5069270;28;20282;-58
2022/06/23 10:28:33;;;;;;;4.80;4.50;;;;;;;;;;5064704;28;20270;-58
2022/06/23 10:31:05;;;;;;;4.93;4.63;;;;;;;;;;5074705;28;20204;-57
2022/06/23 10:33:44;;;;;;;5.45;4.85;;;;;;;;;;5074462;28;20196;-58
2022/06/23 10:36:23;;;;;;;4.43;4.13;;;;;;;;;;5075094;28;20208;-59
2022/06/23 10:38:58;;;;;;;5.05;4.65;;;;;;;;;;5073641;28;20210;-58
2022/06/23 10:41:52;;;;;;;4.80;4.40;;;;;;;;;;5074122;28;20195;-58
2022/06/23 10:44:28;;;;;;;4.60;4.30;;;;;;;;;;5016528;28;20228;-58
2022/06/23 10:47:10;;;;;;;6.25;4.45;;;;;;;;;;5074272;28;20302;-58
2022/06/23 10:49:48;;;;;;;5.30;4.80;;;;;;;;;;5074813;28;20269;-58
2022/06/23 10:52:30;;;;;;;5.40;5.00;;;;;;;;;;5074382;28;20257;-58
2022/06/23 10:55:09;;;;;;;4.95;4.55;;;;;;;;;;5073923;28;20224;-58
2022/06/23 10:57:46;;;;;;;5.35;4.90;;;;;;;;;;5073771;28;20196;-58
2022/06/23 11:00:16;;;;;;;5.30;4.90;;;;;;;;;;5074494;28;20208;-58
2022/06/23 11:02:56;;;;;;;4.70;4.40;;;;;;;;;;5074278;28;20703;-58
2022/06/23 11:05:37;;;;;;;5.30;4.90;;;;;;;;;;5074455;28;20227;-58
2022/06/23 11:08:14;;;;;;;5.35;4.93;;;;;;;;;;5074358;28;20206;-58
2022/06/23 11:10:49;;;;;;;5.15;4.85;;;;;;;;;;5074408;28;20233;-58
2022/06/23 11:13:21;;;;;;;5.40;5.00;;;;;;;;;;5074801;28;20239;-59
2022/06/23 11:15:54;;;;;;;5.70;5.30;;;;;;;;;;5074796;28;20556;-58
2022/06/23 11:18:32;;;;;;;4.90;4.60;;;;;;;;;;5073914;28;20852;-58
2022/06/23 11:21:08;;;;;;;5.15;4.85;;;;;;;;;;5074797;28;20285;-58
2022/06/23 11:23:39;;;;;;;5.20;4.90;;;;;;;;;;5074204;28;20206;-58
2022/06/23 11:26:11;;;;;;;5.93;5.20;;;;;;;;;;5075137;28;20666;-58
2022/06/23 11:28:45;;;;;;;4.93;4.57;;;;;;;;;;5074261;28;20406;-58
2022/06/23 11:31:23;;;;;;;5.47;5.07;;;;;;;;;;5073900;28;20646;-58
2022/06/23 11:34:01;;;;;;;5.53;5.18;;;;;;;;;;5073862;28;20273;-58
2022/06/23 11:36:43;;;;;;;5.30;4.90;;;;;;;;;;5073858;28;20227;-59
2022/06/23 11:39:26;;;;;;;5.47;5.18;;;;;;;;;;5073657;28;20291;-59
2022/06/23 11:41:59;;;;;;;5.70;5.30;;;;;;;;;;5030819;28;20273;-59
2022/06/23 11:44:32;;;;;;;5.47;5.07;;;;;;;;;;5073472;28;20292;-58
2022/06/23 11:47:04;;;;;;;5.28;4.95;;;;;;;;;;5073772;28;20247;-58
2022/06/23 11:49:40;;;;;;;5.35;4.95;;;;;;;;;;5074094;28;20243;-59
2022/06/23 11:52:17;;;;;;;5.47;5.07;;;;;;;;;;5073542;28;20204;-58
2022/06/23 11:54:52;;;;;;;5.63;5.22;;;;;;;;;;5073973;28;20248;-59
2022/06/23 11:57:27;;;;;;;5.70;5.30;;;;;;;;;;5072722;28;20260;-59
2022/06/23 11:59:59;;;;;;;5.85;5.13;;;;;;;;;;5073145;28;20208;-58
2022/06/23 12:02:27;;;;;;;6.05;5.60;;;;;;;;;;5073834;28;20266;-58
2022/06/23 12:04:59;;;;;;;5.47;5.00;;;;;;;;;;5073117;28;20261;-59
2022/06/23 12:07:38;;;;;;;5.63;5.13;;;;;;;;;;5052633;28;20520;-58
2022/06/23 12:10:09;;;;;;;5.53;5.13;;;;;;;;;;5052893;28;20236;-59
2022/06/23 12:12:37;;;;;;;5.93;5.53;;;;;;;;;;5052790;28;20300;-59
2022/06/23 12:15:05;;;;;;;5.97;5.57;;;;;;;;;;5056048;28;20256;-58
2022/06/23 12:17:34;;;;;;;6.03;5.53;;;;;;;;;;5056539;28;20296;-58
2022/06/23 12:20:05;;;;;;;5.30;5.00;;;;;;;;;;5057442;28;20212;-58
2022/06/23 12:22:37;;;;;;;5.63;5.32;;;;;;;;;;5057503;28;20262;-58
2022/06/23 12:25:12;;;;;;;5.47;5.00;;;;;;;;;;5057123;28;20274;-59
2022/06/23 12:27:43;;;;;;;5.93;5.53;;;;;;;;;;5057153;28;20507;-59
2022/06/23 12:30:12;;;;;;;5.57;5.18;;;;;;;;;;5056093;28;20472;-59
2022/06/23 12:32:44;;;;;;;5.47;4.97;;;;;;;;;;5057538;28;20201;-59
2022/06/23 12:35:14;;;;;;;5.70;5.30;;;;;;;;;;5077370;28;20259;-59
2022/06/23 12:37:44;;;;;;;5.88;5.47;;;;;;;;;;5076662;28;20266;-59
2022/06/23 12:40:23;;;;;;;5.78;5.28;;;;;;;;;;5076649;28;20782;-58
2022/06/23 12:42:52;;;;;;;5.47;5.07;;;;;;;;;;5076910;28;20300;-58
2022/06/23 12:45:27;;;;;;;5.40;5.00;;;;;;;;;;5077260;28;20490;-58
2022/06/23 12:48:00;;;;;;;5.40;4.90;;;;;;;;;;5077416;28;20195;-59
2022/06/23 12:50:37;;;;;;;5.10;4.80;;;;;;;;;;5077259;28;20205;-59
2022/06/23 12:53:16;;;;;;;5.45;5.05;;;;;;;;;;5077136;28;20321;-58
2022/06/23 12:55:52;;;;;;;5.72;5.32;;;;;;;;;;5077209;28;20554;-59
2022/06/23 12:58:24;;;;;;;5.90;5.30;;;;;;;;;;5077384;28;20253;-58
2022/06/23 13:00:56;;;;;;;5.63;5.18;;;;;;;;;;5077497;28;20580;-59
2022/06/23 13:03:27;;;;;;;5.28;4.85;;;;;;;;;;5072541;28;20205;-58
2022/06/23 13:05:59;;;;;;;5.30;4.90;;;;;;;;;;5058308;28;20219;-59
2022/06/23 13:08:30;;;;;;;5.75;5.35;;;;;;;;;;5056457;28;20564;-59
2022/06/23 13:11:00;;;;;;;5.25;4.95;;;;;;;;;;5056642;28;20637;-59
2022/06/23 13:13:30;;;;;;;5.78;5.35;;;;;;;;;;5055712;28;20245;-58
2022/06/23 13:15:59;;;;;;;5.50;5.10;;;;;;;;;;5056067;28;20260;-59
2022/06/23 13:18:32;;;;;;;5.10;4.70;;;;;;;;;;5055920;28;20223;-58
2022/06/23 13:21:02;;;;;;;5.88;5.40;;;;;;;;;;5055762;28;20209;-59
2022/06/23 13:23:37;;;;;;;5.25;4.90;;;;;;;;;;5055705;28;20263;-58
2022/06/23 13:26:07;;;;;;;5.00;4.60;;;;;;;;;;5055260;28;20275;-59
2022/06/23 13:28:36;;;;;;;5.05;4.68;;;;;;;;;;5063973;28;20247;-58
2022/06/23 13:31:07;;;;;;;5.25;4.90;;;;;;;;;;5075722;28;20196;-59
2022/06/23 13:33:36;;;;;;;5.50;5.10;;;;;;;;;;5056660;28;20220;-59
2022/06/23 13:36:06;;;;;;;5.05;4.75;;;;;;;;;;5055971;28;20260;-59
2022/06/23 13:38:40;;;;;;;5.30;4.90;;;;;;;;;;5056946;28;20216;-59
2022/06/23 13:41:11;;;;;;;5.50;5.10;;;;;;;;;;5056488;28;20205;-59
2022/06/23 13:43:43;;;;;;;5.38;4.97;;;;;;;;;;5056212;28;20727;-58
2022/06/23 13:46:14;;;;;;;5.22;4.82;;;;;;;;;;5055804;28;20608;-59
2022/06/23 13:48:43;;;;;;;5.25;4.85;;;;;;;;;;5056089;28;20240;-58
2022/06/23 13:51:14;;;;;;;5.15;4.85;;;;;;;;;;5056657;28;20200;-59
2022/06/23 13:53:44;;;;;;;5.78;5.28;;;;;;;;;;5055877;28;20240;-59
2022/06/23 13:56:16;;;;;;;5.03;4.72;;;;;;;;;;5066125;28;20277;-58
2022/06/23 13:58:45;;;;;;;5.35;4.95;;;;;;;;;;5075380;28;20204;-59
2022/06/23 14:01:17;;;;;;;5.32;4.93;;;;;;;;;;5075339;28;20625;-59
2022/06/23 14:03:48;;;;;;;5.45;5.10;;;;;;;;;;5075958;28;20235;-59
2022/06/23 14:06:18;;;;;;;5.60;5.20;;;;;;;;;;5075744;28;20507;-63
2022/06/23 14:08:48;;;;;;;6.00;5.50;;;;;;;;;;5075280;28;20223;-61
2022/06/23 14:11:19;;;;;;;6.05;5.55;;;;;;;;;;5074923;28;20565;-59
2022/06/23 14:13:52;;;;;;;5.53;5.22;;;;;;;;;;5075252;28;20250;-59
2022/06/23 14:16:22;;;;;;;5.78;5.38;;;;;;;;;;5075052;28;20220;-59
2022/06/23 14:18:52;;;;;;;5.63;5.30;;;;;;;;;;5074732;28;20429;-59
2022/06/23 14:21:25;;;;;;;5.38;5.07;;;;;;;;;;5073627;28;20243;-58
2022/06/23 14:24:01;;;;;;;5.68;5.28;;;;;;;;;;5074057;28;20740;-59
2022/06/23 14:26:31;;;;;;;5.90;5.40;;;;;;;;;;5075762;28;20590;-59
2022/06/23 14:29:01;;;;;;;5.35;4.95;;;;;;;;;;5075219;28;20210;-59
2022/06/23 14:31:31;;;;;;;5.70;5.30;;;;;;;;;;5074765;28;20203;-59
2022/06/23 14:34:04;;;;;;;5.30;5.00;;;;;;;;;;5074444;28;20239;-58
2022/06/23 14:36:34;;;;;;;5.47;5.07;;;;;;;;;;5074201;28;20682;-58
2022/06/23 14:39:05;;;;;;;5.47;5.07;;;;;;;;;;5074663;28;20211;-58
2022/06/23 14:41:49;;;;;;;5.10;4.80;;;;;;;;;;5074405;28;20226;-58
2022/06/23 14:44:28;;;;;;;5.28;4.88;;;;;;;;;;5071680;28;20303;-59
2022/06/23 14:47:01;;;;;;;5.53;5.13;;;;;;;;;;5072744;28;20500;-58
2022/06/23 14:49:39;;;;;;;5.20;4.90;;;;;;;;;;5074793;28;20201;-58
2022/06/23 14:52:09;;;;;;;4.93;4.63;;;;;;;;;;5053573;28;20266;-58
2022/06/23 14:54:42;;;;;;;5.57;5.28;;;;;;;;;;5054944;28;20208;-58
2022/06/23 14:57:19;;;;;;;5.75;5.32;;;;;;;;;;5054487;28;20231;-57
2022/06/23 14:59:48;;;;;;;5.68;5.28;;;;;;;;;;5054419;28;20236;-59
2022/06/23 15:02:21;;;;;;;5.50;5.10;;;;;;;;;;5053979;28;20251;-58
2022/06/23 15:04:52;;;;;;;5.07;4.70;;;;;;;;;;5053765;28;20213;-58
2022/06/23 15:07:22;;;;;;;5.55;5.15;;;;;;;;;;5054417;28;20204;-58
2022/06/23 15:09:55;;;;;;;5.40;5.10;;;;;;;;;;5054745;28;20256;-58
2022/06/23 15:12:27;;;;;;;5.50;5.18;;;;;;;;;;5054819;28;20311;-58
2022/06/23 15:14:59;;;;;;;5.43;4.97;;;;;;;;;;5054246;28;20248;-58
2022/06/23 15:17:30;;;;;;;5.22;4.93;;;;;;;;;;5062399;28;20250;-59
2022/06/23 15:20:00;;;;;;;5.45;5.15;;;;;;;;;;5074869;28;20258;-58
2022/06/23 15:25:24;;;;;;;5.63;5.22;;;;;;;;;;5072604;28;20261;-58